• Join FlightAware (Why Join?)
  • Login
  • US Flag GB Flag 
20:38 EDT


 

Airport Tracker/Info


-or-


 

Live Flight TrackerFlight Track Log ✈ EGF3681 ✈ 28-Aug-2013 ✈ KORD - KDAY

Flight Track Log - Related Links

Times and Time Zones

All times are in EDT time to prevent confusion due to time zone crossing. See the EGF3681 flight status page for this flight to view local times or setup timezone preferences in your user account.

Time Position Orientation Groundspeed Altitude Reporting Facility
EDT Latitude Longitude Course Direction KTS MPH feet Rate Location/Type
22:54 41.9833 -87.8500 90° East 168 193 2,000  Level Chicago TRACON
22:56 41.9634 -87.5003 98° East  Level FlightAware Approximate
22:56 41.9858 -87.7064 89° East 222 255 5,100  Level Chicago Center
22:57 41.9501 -87.3682 98° East  Level FlightAware Approximate
22:57 41.9767 -87.6047 97° East 265 305 6,800  Level Chicago Center
22:58 41.9407 -87.2355 95° East  Level FlightAware Approximate
22:58 41.9700 -87.4992 95° East 281 323 8,600  Level Chicago Center
22:59 41.9333 -87.1027 90° East  Level FlightAware Approximate
22:59 41.9644 -87.3908 94° East 289 333 10,300  Level Chicago Center
23:00 41.9572 -87.2756 95° East 306 352 11,600 1,200 Climbing Chicago Center
23:01 41.9492 -87.1536 95° East 324 373 12,800 1,080 Climbing Chicago Center
23:02 41.9428 -87.0261 94° East 341 392 13,900 1,020 Climbing Chicago Center
23:03 41.9250 -86.8992 101° East 358 412 15,000 1,020 Climbing Chicago Center
23:04 41.8642 -86.7892 127° Southeast 367 422 16,000 1,080 Climbing Chicago Center
23:05 41.7947 -86.6658 127° Southeast 375 432 17,200 1,080 Climbing Chicago Center
23:06 41.7317 -86.5511 126° Southeast 381 438 18,200 960 Climbing Chicago Center
23:07 41.6694 -86.4361 126° Southeast 384 442 19,200 960 Climbing Chicago Center
23:08 41.6064 -86.3194 126° Southeast 388 447 20,200 1,020 Climbing Chicago Center
23:09 41.5419 -86.2019 126° Southeast 394 453 21,300 1,020 Climbing Chicago Center
23:10 41.4753 -86.0822 127° Southeast 401 461 22,300 780 Climbing Chicago Center
23:11 41.3956 -85.9381 126° Southeast 406 467 23,000 300 Climbing Chicago Center
23:12 41.3253 -85.8103 126° Southeast 428 493 23,000  Level Chicago Center
23:13 41.2503 -85.6769 127° Southeast 451 519 23,000  Level Chicago Center
23:14 41.1744 -85.5383 126° Southeast 466 536 23,000  Level Chicago Center
23:15 41.0958 -85.4000 127° Southeast 471 542 23,000  Level Chicago Center
23:16 41.0161 -85.2578 127° Southeast 480 552 23,000 -1,140 Level Chicago Center
23:17 40.9211 -85.1383 136° Southeast 472 543 20,800 -2,280 Descending Chicago Center
23:18 40.8156 -85.0489 147° Southeast 459 528 18,400 -2,400 Descending Chicago Center
23:19 40.6947 -84.9506 148° Southeast 437 503 16,000 -1,560 Descending Chicago Center
23:21 40.5936 -84.8681 148° Southeast 425 489 15,000 -780 Descending Indianapolis Center
23:22 40.4956 -84.7881 148° Southeast 420 483 14,300 -1,080 Descending Indianapolis Center
23:22 40.4006 -84.7128 149° Southeast 397 457 13,100 -1,380 Descending Indianapolis Center
23:23 40.3233 -84.6486 148° Southeast 388 447 12,000 -1,140 Descending Indianapolis Center
23:24 40.2181 -84.6097 164° South 320 368 10,900 -1,380 Descending Indianapolis Center
23:25 40.1428 -84.5850 166° South 297 342 9,300 -1,740 Descending Indianapolis Center
23:26 40.0617 -84.5561 165° South 297 342 7,600 -1,680 Descending Indianapolis Center
23:27 39.9869 -84.5286 164° South 285 328 6,000 -1,680 Descending Indianapolis Center
23:28 39.9119 -84.5014 164° South 277 319 4,300 -1,380 Descending Indianapolis Center
23:29 39.8436 -84.4725 162° South 264 304 3,200 -660 Descending Indianapolis Center
23:30 39.8106 -84.4064 123° Southeast 211 243 3,000 -240 Descending Indianapolis Center
23:31 39.8400 -84.3489 56° Northeast 188 216 2,800 -480 Descending Indianapolis Center
23:32 39.8636 -84.3067 54° Northeast 135 155 2,100 -720 Descending Indianapolis Center
23:33 39.8844 -84.2667 56° Northeast 125 144 1,400 -720 Descending Indianapolis Center